.
WxDataArchive / Data Records for 2009-02-17
2009-02-16 February 2009 2009-02-18

Data Records for Tuesday, 17 February 2009

Time	Temp	Chill	HIndex	Humid	Dewpt	 Wind 	HiWind	WindDir	Rain 	Barom 
-----	----	-----	------	-----	-----	------	------	-------	-----	----- 
00:00	19.9	19.9	19.9	83	15.6	0	0	---	0.00	30.352 
00:05	19.7	19.7	19.7	83	15.4	0	0	---	0.00	30.349 
00:10	19.7	19.7	19.7	84	15.7	0	0	---	0.00	30.347 
00:15	19.9	19.9	19.9	84	15.9	0	0	---	0.00	30.343 
00:20	19.9	19.9	19.9	84	15.9	0	0	---	0.00	30.339 
00:25	19.7	19.7	19.7	84	15.7	0	0	---	0.00	30.338 
00:30	19.7	19.7	19.7	84	15.7	0	0	---	0.00	30.337 
00:35	19.7	19.7	19.7	84	15.7	0	0	---	0.00	30.337 
00:40	19.7	19.7	19.7	84	15.7	0	0	---	0.00	30.337 
00:45	19.9	19.9	19.9	85	16.1	0	0	---	0.00	30.335 
00:50	20.0	20.0	20.0	85	16.2	0	0	---	0.00	30.334 
00:55	20.0	20.0	20.0	85	16.2	0	0	---	0.00	30.335 
01:00	20.2	20.2	20.2	85	16.4	0	0	---	0.00	30.335 
01:05	20.2	20.2	20.2	86	16.7	0	0	---	0.00	30.333 
01:10	20.3	20.3	20.3	86	16.8	0	0	---	0.00	30.333 
01:15	20.3	20.3	20.3	86	16.8	0	0	---	0.00	30.332 
01:20	20.3	20.3	20.3	86	16.8	0	0	---	0.00	30.331 
01:25	20.6	20.6	20.6	86	17.1	0	0	---	0.00	30.329 
01:30	20.6	20.6	20.6	86	17.1	0	0	---	0.00	30.330 
01:35	20.8	20.8	20.8	86	17.3	0	0	---	0.00	30.331 
01:40	20.8	20.8	20.8	86	17.3	0	0	---	0.00	30.330 
01:45	20.8	20.8	20.8	86	17.3	0	0	---	0.00	30.329 
01:50	20.8	20.8	20.8	86	17.3	0	0	---	0.00	30.331 
01:55	20.6	20.6	20.6	86	17.1	0	0	---	0.00	30.329 
02:00	20.6	20.6	20.6	86	17.1	0	0	---	0.00	30.329 
02:05	20.8	20.8	20.8	86	17.3	0	0	---	0.00	30.329 
02:10	21.0	21.0	21.0	87	17.8	0	0	---	0.00	30.329 
02:15	21.0	21.0	21.0	87	17.8	0	0	---	0.00	30.331 
02:20	21.1	21.1	21.1	87	17.8	0	0	---	0.00	30.330 
02:25	21.1	21.1	21.1	87	17.8	0	0	---	0.00	30.327 
02:30	21.1	21.1	21.1	86	17.6	0	0	---	0.00	30.330 
02:35	21.0	21.0	21.0	86	17.5	0	0	---	0.00	30.330 
02:40	21.0	21.0	21.0	86	17.5	0	0	---	0.00	30.326 
02:45	20.8	20.8	20.8	86	17.3	0	0	---	0.00	30.321 
02:50	20.6	20.6	20.6	86	17.1	0	0	---	0.00	30.319 
02:55	20.6	20.6	20.6	86	17.1	0	0	---	0.00	30.317 
03:00	20.5	20.5	20.5	86	17.0	0	0	---	0.00	30.318 
03:05	20.3	20.3	20.3	86	16.8	0	0	---	0.00	30.317 
03:10	20.3	20.3	20.3	86	16.8	0	0	---	0.00	30.316 
03:15	20.3	20.3	20.3	87	17.1	0	0	---	0.00	30.315 
03:20	20.3	20.3	20.3	87	17.1	0	0	---	0.00	30.316 
03:25	20.3	20.3	20.3	87	17.1	0	0	---	0.00	30.312 
03:30	20.3	20.3	20.3	87	17.1	0	0	---	0.00	30.312 
03:35	20.3	20.3	20.3	87	17.1	0	0	---	0.00	30.310 
03:40	20.3	20.3	20.3	87	17.1	0	0	---	0.00	30.313 
03:45	20.2	20.2	20.2	87	17.0	0	0	---	0.00	30.313 
03:50	20.2	20.2	20.2	87	17.0	0	0	---	0.00	30.309 
03:55	20.0	20.0	20.0	87	16.8	0	0	---	0.00	30.308 
04:00	20.0	20.0	20.0	87	16.8	0	0	---	0.00	30.302 
04:05	19.9	19.9	19.9	87	16.7	0	0	---	0.00	30.304 
04:10	19.9	19.9	19.9	87	16.7	0	0	---	0.00	30.308 
04:15	19.9	19.9	19.9	87	16.7	0	0	---	0.00	30.304 
04:20	19.7	19.7	19.7	87	16.5	0	0	---	0.00	30.304 
04:25	19.7	19.7	19.7	88	16.7	0	0	---	0.00	30.303 
04:30	19.7	19.7	19.7	87	16.5	0	0	---	0.00	30.303 
04:35	19.7	19.7	19.7	88	16.7	0	0	---	0.00	30.302 
04:40	19.7	19.7	19.7	88	16.7	0	0	---	0.00	30.302 
04:45	19.7	19.7	19.7	88	16.7	0	0	---	0.00	30.302 
04:50	19.5	19.5	19.5	88	16.5	0	0	---	0.00	30.301 
04:55	19.7	19.7	19.7	88	16.7	0	0	---	0.00	30.301 
05:00	19.9	19.9	19.9	88	16.9	0	0	---	0.00	30.293 
05:05	19.9	19.9	19.9	88	16.9	0	0	---	0.00	30.294 
05:10	19.9	19.9	19.9	87	16.7	0	0	---	0.00	30.295 
05:15	19.7	19.7	19.7	87	16.5	0	0	---	0.00	30.294 
05:20	19.5	19.5	19.5	87	16.3	0	1	315	0.00	30.291 
05:25	19.7	19.7	19.7	88	16.7	0	0	---	0.00	30.290 
05:30	20.0	20.0	20.0	88	17.0	0	1	315	0.00	30.287 
05:35	20.5	20.5	20.5	88	17.5	0	1	315	0.00	30.286 
05:40	21.1	21.1	21.1	88	18.1	0	2	0	0.00	30.282 
05:45	21.6	21.6	21.6	87	18.3	0	1	0	0.00	30.275 
05:50	22.1	22.1	22.1	85	18.3	0	1	0	0.00	30.274 
05:55	22.4	22.4	22.4	84	18.3	0	1	0	0.00	30.272 
06:00	22.7	22.7	22.7	83	18.3	0	2	0	0.00	30.271 
06:05	22.9	22.9	22.9	82	18.2	0	2	0	0.00	30.272 
06:10	23.2	23.2	23.2	81	18.3	0	3	112	0.00	30.270 
06:15	23.3	23.3	23.3	80	18.1	0	2	112	0.00	30.266 
06:20	23.5	23.5	23.5	79	18.0	0	2	112	0.00	30.264 
06:25	23.6	23.6	23.6	78	17.8	0	2	112	0.00	30.260 
06:30	23.6	23.6	23.6	77	17.5	0	2	112	0.00	30.258 
06:35	23.9	23.9	23.9	77	17.8	1	4	112	0.00	30.251 
06:40	24.1	24.1	24.1	76	17.7	2	5	112	0.00	30.246 
06:45	24.1	24.1	24.1	75	17.3	1	3	112	0.00	30.243 
06:50	24.2	24.2	24.2	75	17.4	1	2	135	0.00	30.242 
06:55	24.2	24.2	24.2	75	17.4	1	2	112	0.00	30.242 
07:00	24.2	24.2	24.2	74	17.1	1	3	112	0.00	30.241 
07:05	24.2	24.2	24.2	74	17.1	0	2	112	0.00	30.243 
07:10	24.4	24.4	24.4	74	17.3	0	2	112	0.00	30.243 
07:15	24.2	24.2	24.2	73	16.8	0	2	112	0.00	30.243 
07:20	24.2	24.2	24.2	73	16.8	0	2	112	0.00	30.243 
07:25	24.2	24.2	24.2	73	16.8	1	3	112	0.00	30.243 
07:30	24.4	24.4	24.4	72	16.7	0	2	112	0.00	30.247 
07:35	24.2	24.2	24.2	72	16.5	0	2	112	0.00	30.245 
07:40	24.4	24.4	24.4	72	16.7	0	2	90	0.00	30.246 
07:45	24.2	24.2	24.2	72	16.5	0	2	135	0.00	30.248 
07:50	24.2	24.2	24.2	73	16.8	0	1	135	0.00	30.250 
07:55	24.2	24.2	24.2	73	16.8	0	1	135	0.00	30.248 
08:00	24.2	24.2	24.2	73	16.8	0	1	135	0.00	30.252 
08:05	24.4	24.4	24.4	73	17.0	0	2	135	0.00	30.251 
08:10	24.5	24.5	24.5	73	17.1	0	1	135	0.00	30.250 
08:15	24.7	24.7	24.7	73	17.3	0	2	158	0.00	30.248 
08:20	25.0	25.0	25.0	73	17.6	0	2	248	0.00	30.248 
08:25	25.3	25.3	25.3	73	17.9	0	1	248	0.00	30.251 
08:30	25.8	25.8	25.8	72	18.0	1	3	68	0.00	30.246 
08:35	26.3	26.3	26.3	70	17.9	1	4	68	0.00	30.246 
08:40	26.7	26.7	26.7	70	18.3	1	4	68	0.00	30.245 
08:45	27.2	27.2	27.2	69	18.4	2	5	90	0.00	30.239 
08:50	27.6	27.6	27.6	69	18.8	1	4	112	0.00	30.239 
08:55	27.9	27.9	27.9	68	18.7	1	4	68	0.00	30.239 
09:00	28.2	28.2	28.2	67	18.7	1	6	68	0.00	30.238 
09:05	28.5	28.5	28.5	67	19.0	1	6	68	0.00	30.238 
09:10	28.7	28.7	28.7	67	19.2	1	3	68	0.00	30.232 
09:15	28.7	28.7	28.7	66	18.8	1	4	90	0.00	30.230 
09:20	28.8	28.8	28.8	66	18.9	1	5	112	0.00	30.230 
09:25	29.0	29.0	29.0	65	18.7	2	4	90	0.00	30.225 
09:30	29.4	29.4	29.4	65	19.1	1	4	90	0.00	30.222 
09:35	29.7	29.7	29.7	64	19.0	1	6	90	0.00	30.219 
09:40	29.8	29.8	29.8	64	19.1	2	5	68	0.00	30.220 
09:45	30.0	30.0	30.0	64	19.3	2	7	68	0.00	30.209 
09:50	30.4	30.4	30.4	63	19.3	2	6	90	0.00	30.207 
09:55	30.9	30.9	30.9	63	19.8	2	9	45	0.00	30.195 
10:00	31.3	31.3	31.3	62	19.8	2	5	68	0.00	30.194 
10:05	31.8	31.8	31.8	62	20.3	2	7	270	0.00	30.194 
10:10	31.9	31.9	31.9	62	20.4	2	6	248	0.00	30.193 
10:15	32.5	32.5	32.5	62	20.9	1	6	45	0.00	30.193 
10:20	32.9	32.9	32.9	59	20.2	2	8	248	0.00	30.191 
10:25	33.2	33.2	33.2	58	20.0	2	7	22	0.00	30.190 
10:30	33.4	33.4	33.4	58	20.2	3	10	270	0.00	30.184 
10:35	33.4	33.4	33.4	59	20.6	2	8	270	0.00	30.181 
10:40	33.8	33.8	33.8	59	21.0	3	7	248	0.00	30.180 
10:45	34.1	34.1	34.1	58	20.9	2	6	225	0.00	30.178 
10:50	34.3	34.3	34.3	57	20.7	3	8	248	0.00	30.177 
10:55	34.7	34.7	34.7	56	20.6	3	7	270	0.00	30.175 
11:00	35.3	35.3	35.3	57	21.6	2	7	90	0.00	30.173 
11:05	35.8	35.8	35.8	54	20.8	3	9	90	0.00	30.168 
11:10	35.9	35.9	35.9	56	21.8	3	9	45	0.00	30.166 
11:15	36.0	36.0	36.0	55	21.4	3	9	112	0.00	30.162 
11:20	36.3	36.3	36.3	54	21.3	3	12	90	0.00	30.158 
11:25	36.3	36.3	36.3	54	21.3	3	7	90	0.00	30.158 
11:30	36.5	36.5	36.5	53	21.0	3	9	112	0.00	30.157 
11:35	36.6	36.6	36.6	54	21.5	3	8	90	0.00	30.156 
11:40	36.6	33.4	36.6	54	21.5	4	11	90	0.00	30.157 
11:45	36.8	33.6	36.8	54	21.7	4	9	90	0.00	30.154 
11:50	36.9	36.9	36.9	55	22.3	3	9	90	0.00	30.150 
11:55	37.2	37.2	37.2	54	22.1	3	14	90	0.00	30.145 
12:00	37.3	34.2	37.3	53	21.8	4	10	90	0.00	30.141 
12:05	37.5	37.5	37.5	55	22.8	3	7	90	0.00	30.139 
12:10	37.8	37.8	37.8	53	22.2	2	7	45	0.00	30.138 
12:15	37.5	37.5	37.5	52	21.5	3	7	248	0.00	30.130 
12:20	37.3	34.2	37.3	51	20.9	4	10	270	0.00	30.126 
12:25	37.6	37.6	37.6	52	21.6	3	10	68	0.00	30.125 
12:30	37.8	37.8	37.8	54	22.7	3	9	270	0.00	30.124 
12:35	37.8	37.8	37.8	53	22.2	3	7	225	0.00	30.123 
12:40	37.9	37.9	37.9	53	22.3	3	8	270	0.00	30.117 
12:45	38.0	38.0	38.0	54	22.9	3	7	338	0.00	30.111 
12:50	38.2	35.2	38.2	53	22.6	4	10	90	0.00	30.108 
12:55	38.2	38.2	38.2	53	22.6	3	7	90	0.00	30.104 
13:00	38.3	38.3	38.3	54	23.1	3	10	248	0.00	30.098 
13:05	38.6	38.6	38.6	52	22.5	3	7	248	0.00	30.099 
13:10	38.5	34.7	38.5	50	21.5	5	14	248	0.00	30.098 
13:15	38.6	38.6	38.6	53	23.0	3	11	90	0.00	30.094 
13:20	38.8	35.9	38.8	53	23.2	4	12	90	0.00	30.091 
13:25	38.9	38.9	38.9	54	23.7	3	9	22	0.00	30.090 
13:30	38.8	38.8	38.8	54	23.6	3	11	270	0.00	30.088 
13:35	38.9	38.9	38.9	53	23.2	2	7	292	0.00	30.086 
13:40	39.2	39.2	39.2	51	22.6	3	12	90	0.00	30.076 
13:45	39.2	39.2	39.2	54	24.0	3	9	90	0.00	30.073 
13:50	39.3	39.3	39.3	52	23.2	3	9	248	0.00	30.068 
13:55	39.6	39.6	39.6	54	24.3	2	10	45	0.00	30.063 
14:00	40.1	40.1	40.1	52	23.9	3	7	248	0.00	30.059 
14:05	40.2	40.2	40.2	52	24.0	3	7	90	0.00	30.059 
14:10	40.2	40.2	40.2	50	23.1	3	11	248	0.00	30.059 
14:15	40.2	40.2	40.2	52	24.0	3	10	248	0.00	30.054 
14:20	40.6	40.6	40.6	51	23.9	2	7	248	0.00	30.042 
14:25	40.8	40.8	40.8	51	24.1	3	7	248	0.00	30.040 
14:30	40.8	40.8	40.8	50	23.6	2	9	315	0.00	30.034 
14:35	40.6	40.6	40.6	49	23.0	3	10	90	0.00	30.027 
14:40	40.5	40.5	40.5	50	23.3	2	5	90	0.00	30.026 
14:45	40.5	40.5	40.5	51	23.8	2	5	45	0.00	30.024 
14:50	40.1	40.1	40.1	50	23.0	3	9	270	0.00	30.021 
14:55	39.6	36.9	39.6	49	22.0	4	9	90	0.00	30.021 
15:00	39.3	36.5	39.3	51	22.7	4	10	90	0.00	30.013 
15:05	39.2	39.2	39.2	52	23.1	2	7	68	0.00	30.014 
15:10	39.5	36.7	39.5	50	22.4	4	10	90	0.00	30.011 
15:15	39.5	39.5	39.5	52	23.3	3	9	90	0.00	30.011 
15:20	39.5	39.5	39.5	51	22.9	3	7	90	0.00	30.006 
15:25	39.5	39.5	39.5	52	23.3	3	7	90	0.00	29.999 
15:30	39.6	39.6	39.6	51	23.0	3	11	90	0.00	29.992 
15:35	39.6	39.6	39.6	52	23.4	3	9	112	0.00	29.989 
15:40	39.9	39.9	39.9	51	23.3	3	7	90	0.00	29.993 
15:45	40.1	40.1	40.1	51	23.4	2	6	90	0.00	29.981 
15:50	40.1	40.1	40.1	51	23.4	2	5	90	0.00	29.981 
15:55	40.3	40.3	40.3	50	23.2	3	7	90	0.00	29.981 
16:00	40.5	40.5	40.5	51	23.8	2	5	90	0.00	29.980 
16:05	40.6	40.6	40.6	51	23.9	2	6	90	0.00	29.978 
16:10	40.6	40.6	40.6	50	23.4	2	5	68	0.00	29.976 
16:15	40.6	40.6	40.6	50	23.4	2	7	90	0.00	29.974 
16:20	40.6	40.6	40.6	50	23.4	2	9	292	0.00	29.970 
16:25	40.6	40.6	40.6	49	23.0	2	7	90	0.00	29.965 
16:30	40.6	40.6	40.6	50	23.4	3	6	90	0.00	29.965 
16:35	40.6	40.6	40.6	50	23.4	1	4	68	0.00	29.964 
16:40	40.6	40.6	40.6	48	22.5	2	7	270	0.00	29.964 
16:45	40.3	40.3	40.3	46	21.2	2	8	112	0.00	29.962 
16:50	40.3	40.3	40.3	46	21.2	2	7	248	0.00	29.959 
16:55	40.6	40.6	40.6	46	21.5	2	10	270	0.00	29.954 
17:00	40.8	40.8	40.8	46	21.6	2	7	68	0.00	29.949 
17:05	40.8	40.8	40.8	48	22.6	1	6	270	0.00	29.943 
17:10	40.6	40.6	40.6	49	23.0	2	4	112	0.00	29.941 
17:15	40.2	40.2	40.2	49	22.6	3	7	90	0.00	29.940 
17:20	39.8	39.8	39.8	50	22.7	2	5	112	0.00	29.938 
17:25	39.5	39.5	39.5	50	22.4	3	12	90	0.00	29.935 
17:30	39.2	39.2	39.2	50	22.1	2	9	112	0.00	29.933 
17:35	39.1	39.1	39.1	50	22.0	2	6	90	0.00	29.933 
17:40	38.9	38.9	38.9	50	21.9	2	5	112	0.00	29.932 
17:45	38.8	38.8	38.8	51	22.2	1	4	112	0.00	29.932 
17:50	38.6	38.6	38.6	51	22.1	1	3	112	0.00	29.932 
17:55	38.5	38.5	38.5	52	22.4	1	4	112	0.00	29.930 
18:00	38.5	38.5	38.5	53	22.9	1	4	112	0.00	29.930 
18:05	38.3	38.3	38.3	53	22.7	1	3	90	0.00	29.930 
18:10	38.3	38.3	38.3	53	22.7	1	3	90	0.00	29.928 
18:15	38.3	38.3	38.3	54	23.1	1	4	112	0.00	29.927 
18:20	38.2	38.2	38.2	54	23.0	1	3	112	0.00	29.925 
18:25	38.2	38.2	38.2	54	23.0	1	2	112	0.00	29.927 
18:30	38.0	38.0	38.0	55	23.3	1	4	112	0.00	29.921 
18:35	38.0	38.0	38.0	55	23.3	1	4	90	0.00	29.921 
18:40	38.0	38.0	38.0	55	23.3	1	3	112	0.00	29.919 
18:45	37.9	37.9	37.9	55	23.2	1	2	135	0.00	29.916 
18:50	37.9	37.9	37.9	56	23.6	0	2	158	0.00	29.914 
18:55	37.8	37.8	37.8	57	24.0	0	2	158	0.00	29.911 
19:00	37.6	37.6	37.6	57	23.8	0	1	135	0.00	29.913 
19:05	37.5	37.5	37.5	58	24.1	0	2	135	0.00	29.909 
19:10	37.3	37.3	37.3	59	24.3	0	3	135	0.00	29.907 
19:15	37.3	37.3	37.3	58	23.9	0	1	135	0.00	29.910 
19:20	37.2	37.2	37.2	59	24.2	0	2	135	0.00	29.908 
19:25	37.2	37.2	37.2	59	24.2	0	2	135	0.00	29.904 
19:30	37.2	37.2	37.2	59	24.2	0	2	135	0.00	29.904 
19:35	37.2	37.2	37.2	62	25.4	1	9	135	0.00	29.902 
19:40	37.2	37.2	37.2	62	25.4	1	6	0	0.00	29.900 
19:45	37.2	37.2	37.2	63	25.8	2	5	45	0.00	29.891 
19:50	37.2	37.2	37.2	64	26.2	1	4	112	0.00	29.884 
19:55	37.2	37.2	37.2	65	26.5	1	5	112	0.00	29.883 
20:00	37.0	37.0	37.0	65	26.3	0	2	112	0.00	29.879 
20:05	37.0	37.0	37.0	66	26.7	1	2	90	0.00	29.870 
20:10	36.9	36.9	36.9	66	26.6	0	4	112	0.00	29.867 
20:15	36.8	36.8	36.8	66	26.5	0	2	112	0.00	29.865 
20:20	36.8	36.8	36.8	65	26.2	1	2	90	0.00	29.863 
20:25	36.6	36.6	36.6	66	26.3	0	2	112	0.00	29.857 
20:30	36.6	36.6	36.6	65	26.0	1	2	112	0.00	29.854 
20:35	36.8	36.8	36.8	65	26.2	1	3	112	0.00	29.853 
20:40	36.8	36.8	36.8	64	25.8	1	2	112	0.00	29.852 
20:45	36.9	36.9	36.9	64	25.9	1	5	90	0.00	29.850 
20:50	37.0	37.0	37.0	63	25.6	1	5	135	0.00	29.849 
20:55	37.2	37.2	37.2	62	25.4	1	4	112	0.00	29.841 
21:00	37.3	37.3	37.3	61	25.1	1	4	90	0.00	29.835 
21:05	37.5	37.5	37.5	61	25.3	1	6	112	0.00	29.829 
21:10	37.6	37.6	37.6	59	24.6	2	7	90	0.00	29.825 
21:15	37.9	37.9	37.9	58	24.5	1	4	112	0.00	29.820 
21:20	38.0	38.0	38.0	58	24.6	1	4	90	0.00	29.816 
21:25	38.2	38.2	38.2	57	24.3	2	4	135	0.00	29.814 
21:30	38.3	38.3	38.3	56	24.0	2	4	112	0.00	29.810 
21:35	38.5	38.5	38.5	56	24.2	1	3	112	0.00	29.803 
21:40	38.6	38.6	38.6	55	23.8	2	6	90	0.00	29.798 
21:45	38.8	38.8	38.8	54	23.6	3	6	112	0.00	29.797 
21:50	38.9	38.9	38.9	54	23.7	2	5	112	0.00	29.795 
21:55	39.1	39.1	39.1	54	23.9	1	5	90	0.00	29.794 
22:00	39.1	39.1	39.1	53	23.4	2	7	90	0.00	29.785 
22:05	39.2	39.2	39.2	53	23.5	2	5	112	0.00	29.781 
22:10	39.2	39.2	39.2	52	23.1	3	7	112	0.00	29.778 
22:15	39.3	39.3	39.3	53	23.6	2	6	90	0.00	29.775 
22:20	39.3	39.3	39.3	53	23.6	3	10	90	0.00	29.774 
22:25	39.2	39.2	39.2	53	23.5	2	6	90	0.00	29.772 
22:30	39.2	39.2	39.2	53	23.5	2	4	90	0.00	29.765 
22:35	39.2	39.2	39.2	53	23.5	2	7	112	0.00	29.763 
22:40	39.2	39.2	39.2	54	24.0	1	3	135	0.00	29.762 
22:45	39.2	39.2	39.2	53	23.5	1	4	112	0.00	29.759 
22:50	39.2	39.2	39.2	54	24.0	2	5	90	0.00	29.749 
22:55	39.2	39.2	39.2	54	24.0	2	4	112	0.00	29.746 
23:00	39.2	39.2	39.2	54	24.0	2	5	112	0.00	29.745 
23:05	39.2	39.2	39.2	54	24.0	2	5	90	0.00	29.742 
23:10	39.2	39.2	39.2	55	24.4	1	5	90	0.00	29.735 
23:15	39.1	39.1	39.1	54	23.9	1	5	112	0.00	29.730 
23:20	39.1	39.1	39.1	55	24.3	1	4	112	0.00	29.729 
23:25	39.1	39.1	39.1	55	24.3	2	5	112	0.00	29.727 
23:30	39.1	39.1	39.1	55	24.3	2	4	112	0.00	29.727 
23:35	38.9	38.9	38.9	55	24.1	1	4	135	0.00	29.727 
23:40	38.9	38.9	38.9	56	24.6	1	5	135	0.00	29.726 
23:45	38.9	38.9	38.9	56	24.6	1	4	90	0.00	29.720 
23:50	38.9	38.9	38.9	56	24.6	1	5	90	0.00	29.719 
23:55	38.9	38.9	38.9	56	24.6	1	3	90	0.00	29.718 

CoCoRaHS
IN-AL-39
A2 Web Hosting
Creative Commons License
GoDaddy
search engine by freefind advanced

loaded 2018-11-19 11:46:31 • last modified 2010-11-18 10:43:29
Privacy PolicyDisclaimer
• wx.awcolley.com is powered by PmWiki v.2002016 •
• all content (unless otherwise noted) © 2018 A W Colley